Time;durP1;ratioP1;P1;durP2;ratioP2;P2;SDS_P1;SDS_P2;PMS_P1;PMS_P2;Temp;Humidity;BMP_temperature;BMP_pressure;BME280_temperature;BME280_humidity;BME280_pressure;Samples;Min_cycle;Max_cycle;Signal;HPM_P1;HPM_P2
2022/07/30 00:00:41;;;;;;;;;;;;;;;;;;5083335;28;19943;-64
2022/07/30 00:03:08;;;;;;;;;;;;;;;;;;5094696;28;19936;-64
2022/07/30 00:05:34;;;;;;;;;;;;;;;;;;5094758;28;19924;-64
2022/07/30 00:08:01;;;;;;;;;;;;;;;;;;5094762;28;19928;-63
2022/07/30 00:10:27;;;;;;;;;;;;;;;;;;5094628;28;19978;-64
2022/07/30 00:12:56;;;;;;;;;;;;;;;;;;5094741;28;19924;-65
2022/07/30 00:15:22;;;;;;;;;;;;;;;;;;5094680;28;19924;-65
2022/07/30 00:17:49;;;;;;;;;;;;;;;;;;5094236;28;19931;-64
2022/07/30 00:20:15;;;;;;;;;;;;;;;;;;5094228;28;19977;-64
2022/07/30 00:22:42;;;;;;;;;;;;;;;;;;5094451;28;20003;-63
2022/07/30 00:25:09;;;;;;;;;;;;;;;;;;5094383;28;20327;-64
2022/07/30 00:27:35;;;;;;;;;;;;;;;;;;5088940;28;19972;-65
2022/07/30 00:30:04;;;;;;;;;;;;;;;;;;5073899;28;19929;-65
2022/07/30 00:32:30;;;;;;;;;;;;;;;;;;5074098;28;20297;-65
2022/07/30 00:34:57;;;;;;;;;;;;;;;;;;5074088;28;19931;-65
2022/07/30 00:37:23;;;;;;;;;;;;;;;;;;5073872;28;19931;-65
2022/07/30 00:39:50;;;;;;;;;;;;;;;;;;5073510;28;20336;-65
2022/07/30 00:42:24;;;;;;;;;;;;;;;;;;5073525;28;19978;-66
2022/07/30 00:44:50;;;;;;;;;;;;;;;;;;5073847;28;19931;-68
2022/07/30 00:47:18;;;;;;;;;;;;;;;;;;5073809;28;20007;-64
2022/07/30 00:49:45;;;;;;;;;;;;;;;;;;5073231;28;19928;-65
2022/07/30 00:52:12;;;;;;;;;;;;;;;;;;5073648;28;20292;-65
2022/07/30 00:54:38;;;;;;;;;;;;;;;;;;5073401;28;19929;-65
2022/07/30 00:57:05;;;;;;;;;;;;;;;;;;5073384;28;19925;-65
2022/07/30 00:59:32;;;;;;;;;;;;;;;;;;5073100;28;19924;-64
2022/07/30 01:02:00;;;;;;;;;;;;;;;;;;5093428;28;20332;-65
2022/07/30 01:04:29;;;;;;;;;;;;;;;;;;5093663;28;19924;-65
2022/07/30 01:06:55;;;;;;;;;;;;;;;;;;5093820;28;19924;-65
2022/07/30 01:09:22;;;;;;;;;;;;;;;;;;5092898;28;19924;-65
2022/07/30 01:11:48;;;;;;;;;;;;;;;;;;5093294;28;19977;-65
2022/07/30 01:14:15;;;;;;;;;;;;;;;;;;5093451;28;19924;-65
2022/07/30 01:16:42;;;;;;;;;;;;;;;;;;5093406;28;19928;-65
2022/07/30 01:22:00;;;;;;;;;;;;;;;;;;5093274;28;19930;-65
2022/07/30 01:24:28;;;;;;;;;;;;;;;;;;5092984;28;19978;-65
2022/07/30 01:26:57;;;;;;;;;;;;;;;;;;5093202;28;19928;-65
2022/07/30 01:29:24;;;;;;;;;;;;;;;;;;5092221;28;19981;-66
2022/07/30 01:31:54;;;;;;;;;;;;;;;;;;5093117;28;19959;-65
2022/07/30 01:34:22;;;;;;;;;;;;;;;;;;5093224;28;20313;-66
2022/07/30 01:36:50;;;;;;;;;;;;;;;;;;5092975;28;20427;-65
2022/07/30 01:39:17;;;;;;;;;;;;;;;;;;5092675;28;19924;-65
2022/07/30 01:41:44;;;;;;;;;;;;;;;;;;5092896;28;20409;-66
2022/07/30 01:44:12;;;;;;;;;;;;;;;;;;5092840;28;19928;-65
2022/07/30 01:46:39;;;;;;;;;;;;;;;;;;5092745;28;20388;-65
2022/07/30 01:49:07;;;;;;;;;;;;;;;;;;5092450;28;19928;-65
2022/07/30 01:54:37;;;;;;;;;;;;;;;;;;5089965;28;19925;-65
2022/07/30 01:57:04;;;;;;;;;;;;;;;;;;5092630;28;19973;-65
2022/07/30 01:59:34;;;;;;;;;;;;;;;;;;5092314;28;20334;-65
2022/07/30 02:02:01;;;;;;;;;;;;;;;;;;5092287;28;20324;-65
2022/07/30 02:04:27;;;;;;;;;;;;;;;;;;5092768;28;20373;-65
2022/07/30 02:06:57;;;;;;;;;;;;;;;;;;5089386;28;19935;-65
2022/07/30 02:09:28;;;;;;;;;;;;;;;;;;5072178;28;19928;-66
2022/07/30 02:14:45;;;;;;;;;;;;;;;;;;5072527;28;19990;-65
2022/07/30 02:17:14;;;;;;;;;;;;;;;;;;5072263;28;19925;-65
2022/07/30 02:19:43;;;;;;;;;;;;;;;;;;5071807;28;20381;-65
2022/07/30 02:22:12;;;;;;;;;;;;;;;;;;5071880;28;19924;-65
2022/07/30 02:24:41;;;;;;;;;;;;;;;;;;5071938;28;19932;-66
2022/07/30 02:27:10;;;;;;;;;;;;;;;;;;5072118;28;19925;-66
2022/07/30 02:29:37;;;;;;;;;;;;;;;;;;5071870;28;19925;-66
2022/07/30 02:32:08;;;;;;;;;;;;;;;;;;5072057;28;19970;-66
2022/07/30 02:34:36;;;;;;;;;;;;;;;;;;5071878;28;20458;-66
2022/07/30 02:37:03;;;;;;;;;;;;;;;;;;5072032;28;19970;-66
2022/07/30 02:39:31;;;;;;;;;;;;;;;;;;5072419;28;19924;-66
2022/07/30 02:41:58;;;;;;;;;;;;;;;;;;5075956;28;19925;-66
2022/07/30 02:44:28;;;;;;;;;;;;;;;;;;5076127;28;19929;-66
2022/07/30 02:46:55;;;;;;;;;;;;;;;;;;5076412;28;19978;-67
2022/07/30 02:49:24;;;;;;;;;;;;;;;;;;5075673;28;20344;-64
2022/07/30 02:51:50;;;;;;;;;;;;;;;;;;5075752;28;19925;-65
2022/07/30 02:54:18;;;;;;;;;;;;;;;;;;5075830;28;19924;-66
2022/07/30 02:56:46;;;;;;;;;;;;;;;;;;5075835;28;19924;-66
2022/07/30 02:59:13;;;;;;;;;;;;;;;;;;5075522;28;19925;-66
2022/07/30 03:01:40;;;;;;;;;;;;;;;;;;5085471;28;19982;-66
2022/07/30 03:04:09;;;;;;;;;;;;;;;;;;5075628;28;19931;-66
2022/07/30 03:06:37;;;;;;;;;;;;;;;;;;5075136;28;20018;-66
2022/07/30 03:09:04;;;;;;;;;;;;;;;;;;5075104;28;20462;-67
2022/07/30 03:11:31;;;;;;;;;;;;;;;;;;5075358;28;20019;-66
2022/07/30 03:13:57;;;;;;;;;;;;;;;;;;5075612;28;19978;-65
2022/07/30 03:16:25;;;;;;;;;;;;;;;;;;5075247;28;19978;-66
2022/07/30 03:18:53;;;;;;;;;;;;;;;;;;5074710;28;19924;-66
2022/07/30 03:21:20;;;;;;;;;;;;;;;;;;5074508;28;19928;-66
2022/07/30 03:23:49;;;;;;;;;;;;;;;;;;5075427;28;19979;-66
2022/07/30 03:26:17;;;;;;;;;;;;;;;;;;5074992;28;20343;-65
2022/07/30 03:28:44;;;;;;;;;;;;;;;;;;5075304;28;19924;-66
2022/07/30 03:31:12;;;;;;;;;;;;;;;;;;5074843;28;20331;-66
2022/07/30 03:33:39;;;;;;;;;;;;;;;;;;5074887;28;19928;-66
2022/07/30 03:36:06;;;;;;;;;;;;;;;;;;5074974;28;19924;-66
2022/07/30 03:38:33;;;;;;;;;;;;;;;;;;5074923;28;19928;-66
2022/07/30 03:41:02;;;;;;;;;;;;;;;;;;5074447;28;19932;-66
2022/07/30 03:43:29;;;;;;;;;;;;;;;;;;5074977;28;19929;-66
2022/07/30 03:45:57;;;;;;;;;;;;;;;;;;5074948;28;20385;-66
2022/07/30 03:48:23;;;;;;;;;;;;;;;;;;5074750;28;19993;-66
2022/07/30 03:50:51;;;;;;;;;;;;;;;;;;5073885;28;20419;-66
2022/07/30 03:53:19;;;;;;;;;;;;;;;;;;5074470;28;20301;-67
2022/07/30 03:55:45;;;;;;;;;;;;;;;;;;5074797;28;19971;-66
2022/07/30 03:58:13;;;;;;;;;;;;;;;;;;5074622;28;20316;-67
2022/07/30 04:00:40;;;;;;;;;;;;;;;;;;5083105;28;19932;-66
2022/07/30 04:03:07;;;;;;;;;;;;;;;;;;5094616;28;19924;-66
2022/07/30 04:05:33;;;;;;;;;;;;;;;;;;5094713;28;20403;-67
2022/07/30 04:08:00;;;;;;;;;;;;;;;;;;5094711;28;19928;-65
2022/07/30 04:10:26;;;;;;;;;;;;;;;;;;5094504;28;19924;-66
2022/07/30 04:12:55;;;;;;;;;;;;;;;;;;5094427;28;19924;-65
2022/07/30 04:15:23;;;;;;;;;;;;;;;;;;5094930;28;19930;-65
2022/07/30 04:17:53;;;;;;;;;;;;;;;;;;5094518;28;20397;-67
2022/07/30 04:20:21;;;;;;;;;;;;;;;;;;5094454;28;19931;-67
2022/07/30 04:22:49;;;;;;;;;;;;;;;;;;5094350;28;20045;-67
2022/07/30 04:25:15;;;;;;;;;;;;;;;;;;5094445;28;19928;-66
2022/07/30 04:27:42;;;;;;;;;;;;;;;;;;5094348;28;20399;-67
2022/07/30 04:30:10;;;;;;;;;;;;;;;;;;5093958;28;19924;-65
2022/07/30 04:32:38;;;;;;;;;;;;;;;;;;5094213;28;19931;-66
2022/07/30 04:35:05;;;;;;;;;;;;;;;;;;5094315;28;19924;-65
2022/07/30 04:37:31;;;;;;;;;;;;;;;;;;5094035;28;19978;-65
2022/07/30 04:39:58;;;;;;;;;;;;;;;;;;5093850;28;20304;-65
2022/07/30 04:42:25;;;;;;;;;;;;;;;;;;5093858;28;20385;-66
2022/07/30 04:44:52;;;;;;;;;;;;;;;;;;5094328;28;19984;-65
2022/07/30 04:47:18;;;;;;;;;;;;;;;;;;5094266;28;20386;-65
2022/07/30 04:49:47;;;;;;;;;;;;;;;;;;5093800;28;19924;-66
2022/07/30 04:52:14;;;;;;;;;;;;;;;;;;5094480;28;19928;-65
2022/07/30 04:54:42;;;;;;;;;;;;;;;;;;5094243;28;19935;-66
2022/07/30 04:57:10;;;;;;;;;;;;;;;;;;5093873;28;19924;-67
2022/07/30 04:59:37;;;;;;;;;;;;;;;;;;5093746;28;19924;-65
2022/07/30 05:02:04;;;;;;;;;;;;;;;;;;5093942;28;20347;-67
2022/07/30 05:04:31;;;;;;;;;;;;;;;;;;5093224;28;19928;-65
2022/07/30 05:07:00;;;;;;;;;;;;;;;;;;5093770;28;19931;-66
2022/07/30 05:09:26;;;;;;;;;;;;;;;;;;5093695;28;19924;-65
2022/07/30 05:11:54;;;;;;;;;;;;;;;;;;5093756;28;19931;-66
2022/07/30 05:14:21;;;;;;;;;;;;;;;;;;5093926;28;19928;-67
2022/07/30 05:16:48;;;;;;;;;;;;;;;;;;5093333;28;19928;-64
2022/07/30 05:19:14;;;;;;;;;;;;;;;;;;5093430;28;19931;-67
2022/07/30 05:21:41;;;;;;;;;;;;;;;;;;5093029;28;19924;-66
2022/07/30 05:24:09;;;;;;;;;;;;;;;;;;5093586;28;19928;-65
2022/07/30 05:26:36;;;;;;;;;;;;;;;;;;5093154;28;19947;-65
2022/07/30 05:29:02;;;;;;;;;;;;;;;;;;5093362;28;19924;-69
2022/07/30 05:31:29;;;;;;;;;;;;;;;;;;5093250;28;19924;-66
2022/07/30 05:33:56;;;;;;;;;;;;;;;;;;5093182;28;20019;-66
2022/07/30 05:36:23;;;;;;;;;;;;;;;;;;5093503;28;20367;-67
2022/07/30 05:38:49;;;;;;;;;;;;;;;;;;5093394;28;19924;-65
2022/07/30 05:41:17;;;;;;;;;;;;;;;;;;5092994;28;19924;-66
2022/07/30 05:43:44;;;;;;;;;;;;;;;;;;5092853;28;20290;-66
2022/07/30 05:46:11;;;;;;;;;;;;;;;;;;5093066;28;19928;-66
2022/07/30 05:48:38;;;;;;;;;;;;;;;;;;5092806;28;19924;-66
2022/07/30 05:51:06;;;;;;;;;;;;;;;;;;5092663;28;20389;-65
2022/07/30 05:53:32;;;;;;;;;;;;;;;;;;5092680;28;20391;-66
2022/07/30 05:55:59;;;;;;;;;;;;;;;;;;5093111;28;20385;-66
2022/07/30 05:58:27;;;;;;;;;;;;;;;;;;5092812;28;19924;-66
2022/07/30 06:00:53;;;;;;;;;;;;;;;;;;5081569;28;19977;-67
2022/07/30 06:03:20;;;;;;;;;;;;;;;;;;5072112;28;20389;-67
2022/07/30 06:05:47;;;;;;;;;;;;;;;;;;5072582;28;19931;-67
2022/07/30 06:08:13;;;;;;;;;;;;;;;;;;5072482;28;19924;-66
2022/07/30 06:10:40;;;;;;;;;;;;;;;;;;5072371;28;20337;-66
2022/07/30 06:13:06;;;;;;;;;;;;;;;;;;5072244;28;20400;-66
2022/07/30 06:15:34;;;;;;;;;;;;;;;;;;5072230;28;19924;-66
2022/07/30 06:18:01;;;;;;;;;;;;;;;;;;5072248;28;20289;-66
2022/07/30 06:20:27;;;;;;;;;;;;;;;;;;5072014;28;20378;-67
2022/07/30 06:22:54;;;;;;;;;;;;;;;;;;5072111;28;19925;-65
2022/07/30 06:25:20;;;;;;;;;;;;;;;;;;5072176;28;20474;-68
2022/07/30 06:27:47;;;;;;;;;;;;;;;;;;5103537;22;20309;-84
2022/07/30 06:30:14;;;;;;;;;;;;;;;;;;5123741;28;19923;-85
2022/07/30 06:32:44;;;;;;;;;;;;;;;;;;5122701;28;20396;-85
2022/07/30 06:35:11;;;;;;;;;;;;;;;;;;5120426;28;20443;-86
2022/07/30 06:37:37;;;;;;;;;;;;;;;;;;5119171;28;19935;-85
2022/07/30 06:40:04;;;;;;;;;;;;;;;;;;5118872;28;19924;-85
2022/07/30 06:42:31;;;;;;;;;;;;;;;;;;5115547;28;20026;-84
2022/07/30 06:44:57;;;;;;;;;;;;;;;;;;5121415;28;19923;-85
2022/07/30 06:47:27;;;;;;;;;;;;;;;;;;5116061;28;19973;-84
2022/07/30 06:49:55;;;;;;;;;;;;;;;;;;5114752;28;19924;-86
2022/07/30 06:52:22;;;;;;;;;;;;;;;;;;5119084;28;20378;-85
2022/07/30 06:54:48;;;;;;;;;;;;;;;;;;5116705;28;19959;-86
2022/07/30 06:57:16;;;;;;;;;;;;;;;;;;5127202;28;19924;-85
2022/07/30 06:59:43;;;;;;;;;;;;;;;;;;5126324;28;19984;-86
2022/07/30 07:02:10;;;;;;;;;;;;;;;;;;5119415;28;19923;-85
2022/07/30 07:04:36;;;;;;;;;;;;;;;;;;5116005;28;20022;-84
2022/07/30 07:07:04;;;;;;;;;;;;;;;;;;5114873;28;19923;-85
2022/07/30 07:09:30;;;;;;;;;;;;;;;;;;5113616;28;19930;-85
2022/07/30 07:11:57;;;;;;;;;;;;;;;;;;5114150;28;19974;-85
2022/07/30 07:14:24;;;;;;;;;;;;;;;;;;5117065;28;20362;-84
2022/07/30 07:16:50;;;;;;;;;;;;;;;;;;5130453;28;19924;-86
2022/07/30 07:19:17;;;;;;;;;;;;;;;;;;5130883;28;19923;-85
2022/07/30 07:21:43;;;;;;;;;;;;;;;;;;5129740;28;20290;-85
2022/07/30 07:24:11;;;;;;;;;;;;;;;;;;5128574;28;19924;-84
2022/07/30 07:26:38;;;;;;;;;;;;;;;;;;5130984;28;19915;-83
2022/07/30 07:29:04;;;;;;;;;;;;;;;;;;5135982;28;19928;-84
2022/07/30 07:31:33;;;;;;;;;;;;;;;;;;5137119;28;19968;-85
2022/07/30 07:34:00;;;;;;;;;;;;;;;;;;5137261;28;19931;-85
2022/07/30 07:36:27;;;;;;;;;;;;;;;;;;5134579;28;19946;-82
2022/07/30 07:38:53;;;;;;;;;;;;;;;;;;5132400;28;20365;-84
2022/07/30 07:41:21;;;;;;;;;;;;;;;;;;5131946;28;19923;-84
2022/07/30 07:43:51;;;;;;;;;;;;;;;;;;5133278;28;19924;-82
2022/07/30 07:46:18;;;;;;;;;;;;;;;;;;5132889;28;19924;-84
2022/07/30 07:48:44;;;;;;;;;;;;;;;;;;5127689;28;19924;-84
2022/07/30 07:51:11;;;;;;;;;;;;;;;;;;5124263;28;19924;-84
2022/07/30 07:53:37;;;;;;;;;;;;;;;;;;5124356;28;19983;-84
2022/07/30 07:56:07;;;;;;;;;;;;;;;;;;5133781;28;19934;-84
2022/07/30 07:58:35;;;;;;;;;;;;;;;;;;5140912;28;19979;-84
2022/07/30 08:01:01;;;;;;;;;;;;;;;;;;5125907;28;19992;-84
2022/07/30 08:03:28;;;;;;;;;;;;;;;;;;5099302;28;19924;-84
2022/07/30 08:05:54;;;;;;;;;;;;;;;;;;5100892;28;19931;-84
2022/07/30 08:08:21;;;;;;;;;;;;;;;;;;5101134;28;19932;-84
2022/07/30 08:10:47;;;;;;;;;;;;;;;;;;5102964;28;19946;-85
2022/07/30 08:13:14;;;;;;;;;;;;;;;;;;5102032;28;19931;-85
2022/07/30 08:15:42;;;;;;;;;;;;;;;;;;5102469;28;19970;-84
2022/07/30 08:18:09;;;;;;;;;;;;;;;;;;5101274;28;19931;-84
2022/07/30 08:20:36;;;;;;;;;;;;;;;;;;5107272;28;19924;-84
2022/07/30 08:23:03;;;;;;;;;;;;;;;;;;5101960;28;19950;-83
2022/07/30 08:25:30;;;;;;;;;;;;;;;;;;5101493;28;19971;-83
2022/07/30 08:27:57;;;;;;;;;;;;;;;;;;5101372;28;20420;-84
2022/07/30 08:30:24;;;;;;;;;;;;;;;;;;5101304;28;19924;-83
2022/07/30 08:32:51;;;;;;;;;;;;;;;;;;5101779;28;19924;-83
2022/07/30 08:35:18;;;;;;;;;;;;;;;;;;5110918;28;19973;-83
2022/07/30 08:37:44;;;;;;;;;;;;;;;;;;5119314;28;19915;-83
2022/07/30 08:40:12;;;;;;;;;;;;;;;;;;5109260;28;19924;-82
2022/07/30 08:42:38;;;;;;;;;;;;;;;;;;5102430;28;19965;-83
2022/07/30 08:45:06;;;;;;;;;;;;;;;;;;5101928;28;19924;-82
2022/07/30 08:47:33;;;;;;;;;;;;;;;;;;5099511;28;20264;-83
2022/07/30 08:50:03;;;;;;;;;;;;;;;;;;5099990;28;19961;-82
2022/07/30 08:52:30;;;;;;;;;;;;;;;;;;5100259;28;20034;-81
2022/07/30 08:54:57;;;;;;;;;;;;;;;;;;5100083;28;19928;-83
2022/07/30 08:57:24;;;;;;;;;;;;;;;;;;5100621;28;19969;-83
2022/07/30 08:59:51;;;;;;;;;;;;;;;;;;5101810;28;19953;-83
2022/07/30 09:02:17;;;;;;;;;;;;;;;;;;5100344;28;20018;-81
2022/07/30 09:04:44;;;;;;;;;;;;;;;;;;5099888;28;20499;-83
2022/07/30 09:07:12;;;;;;;;;;;;;;;;;;5099901;28;19959;-84
2022/07/30 09:09:38;;;;;;;;;;;;;;;;;;5100133;28;20005;-84
2022/07/30 09:12:29;;;;;;;;;;;;;;;;;;5103811;28;19924;-82
2022/07/30 09:15:01;;;;;;;;;;;;;;;;;;5101694;28;19999;-83
2022/07/30 09:17:27;;;;;;;;;;;;;;;;;;5103447;28;19924;-82
2022/07/30 09:20:01;;;;;;;;;;;;;;;;;;5101382;28;19967;-84
2022/07/30 09:22:41;;;;;;;;;;;;;;;;;;5102159;28;19924;-83
2022/07/30 09:25:08;;;;;;;;;;;;;;;;;;5102783;28;19955;-83
2022/07/30 09:27:43;;;;;;;;;;;;;;;;;;5100016;28;19954;-83
2022/07/30 09:30:10;;;;;;;;;;;;;;;;;;5100578;28;19946;-83
2022/07/30 09:32:48;;;;;;;;;;;;;;;;;;5098632;28;19924;-83
2022/07/30 09:35:15;;;;;;;;;;;;;;;;;;5100422;28;19979;-83
2022/07/30 09:37:43;;;;;;;;;;;;;;;;;;5101004;28;19982;-84
2022/07/30 09:40:14;;;;;;;;;;;;;;;;;;5099659;28;19989;-84
2022/07/30 09:42:40;;;;;;;;;;;;;;;;;;5099397;28;19974;-83
2022/07/30 09:45:08;;;;;;;;;;;;;;;;;;5099911;28;20348;-82
2022/07/30 09:47:35;;;;;;;;;;;;;;;;;;5099033;28;19924;-84
2022/07/30 09:50:02;;;;;;;;;;;;;;;;;;5098451;28;19947;-82
2022/07/30 09:52:29;;;;;;;;;;;;;;;;;;5099950;28;19980;-82
2022/07/30 09:54:57;;;;;;;;;;;;;;;;;;5100825;28;19924;-83
2022/07/30 09:57:23;;;;;;;;;;;;;;;;;;5100143;28;19947;-83
2022/07/30 09:59:50;;;;;;;;;;;;;;;;;;5099712;28;19924;-83
2022/07/30 10:02:16;;;;;;;;;;;;;;;;;;5099819;28;19975;-83
2022/07/30 10:04:43;;;;;;;;;;;;;;;;;;5105009;28;20386;-85
2022/07/30 10:07:17;;;;;;;;;;;;;;;;;;5101952;28;19924;-84
2022/07/30 10:09:45;;;;;;;;;;;;;;;;;;5099488;28;19928;-83
2022/07/30 10:12:13;;;;;;;;;;;;;;;;;;5101554;28;19970;-85
2022/07/30 10:14:43;;;;;;;;;;;;;;;;;;5100243;28;19924;-83
2022/07/30 10:17:10;;;;;;;;;;;;;;;;;;5099486;28;19953;-87
2022/07/30 10:19:36;;;;;;;;;;;;;;;;;;5099350;28;19924;-83
2022/07/30 10:22:03;;;;;;;;;;;;;;;;;;5101419;28;19973;-83
2022/07/30 10:24:30;;;;;;;;;;;;;;;;;;5098773;28;19966;-80
2022/07/30 10:26:57;;;;;;;;;;;;;;;;;;5098865;28;19924;-79
2022/07/30 10:29:25;;;;;;;;;;;;;;;;;;5099155;28;20007;-83
2022/07/30 10:31:51;;;;;;;;;;;;;;;;;;5098889;28;19930;-82
2022/07/30 10:34:19;;;;;;;;;;;;;;;;;;5098076;28;19971;-83
2022/07/30 10:36:47;;;;;;;;;;;;;;;;;;5098506;28;19974;-82
2022/07/30 10:39:18;;;;;;;;;;;;;;;;;;5101710;28;19925;-82
2022/07/30 10:41:48;;;;;;;;;;;;;;;;;;5102815;28;19932;-80
2022/07/30 10:44:32;;;;;;;;;;;;;;;;;;5103872;28;19928;-88
2022/07/30 10:47:02;;;;;;;;;;;;;;;;;;5088126;28;19935;-84
2022/07/30 10:49:29;;;;;;;;;;;;;;;;;;5099823;28;19924;-86
2022/07/30 10:51:55;;;;;;;;;;;;;;;;;;5097008;28;19931;-84
2022/07/30 10:54:38;;;;;;;;;;;;;;;;;;5097753;28;19934;-83
2022/07/30 10:57:06;;;;;;;;;;;;;;;;;;5097038;28;19928;-85
2022/07/30 10:59:47;;;;;;;;;;;;;;;;;;5102489;28;19924;-85
2022/07/30 11:02:15;;;;;;;;;;;;;;;;;;5083846;28;19947;-86
2022/07/30 11:04:42;;;;;;;;;;;;;;;;;;5092978;28;19924;-83
2022/07/30 11:07:28;;;;;;;;;;;;;;;;;;5090544;28;20011;-84
2022/07/30 11:09:55;;;;;;;;;;;;;;;;;;5088141;28;19931;-80
2022/07/30 11:12:37;;;;;;;;;;;;;;;;;;5087187;28;19929;-82
2022/07/30 11:15:03;;;;;;;;;;;;;;;;;;5091584;28;19931;-83
2022/07/30 11:17:57;;;;;;;;;;;;;;;;;;5086321;28;19955;-79
2022/07/30 11:20:24;;;;;;;;;;;;;;;;;;5084694;28;19925;-81
2022/07/30 11:22:52;;;;;;;;;;;;;;;;;;5083392;28;20434;-82
2022/07/30 11:25:33;;;;;;;;;;;;;;;;;;5095661;28;19924;-80
2022/07/30 11:28:00;;;;;;;;;;;;;;;;;;5103046;28;19978;-84
2022/07/30 11:30:37;;;;;;;;;;;;;;;;;;5110413;28;19955;-83
2022/07/30 11:33:24;;;;;;;;;;;;;;;;;;5110132;28;19930;-84
2022/07/30 11:36:07;;;;;;;;;;;;;;;;;;5109936;28;19924;-84
2022/07/30 11:38:57;;;;;;;;;;;;;;;;;;5107401;28;19924;-83
2022/07/30 11:41:24;;;;;;;;;;;;;;;;;;5095242;28;19939;-82
2022/07/30 11:44:05;;;;;;;;;;;;;;;;;;5106142;28;19931;-81
2022/07/30 11:46:32;;;;;;;;;;;;;;;;;;5121010;28;19931;-89
2022/07/30 11:49:01;;;;;;;;;;;;;;;;;;5121704;28;19950;-89
2022/07/30 11:51:30;;;;;;;;;;;;;;;;;;5121380;28;19914;-90
2022/07/30 11:54:00;;;;;;;;;;;;;;;;;;5120877;28;19927;-84
2022/07/30 11:56:26;;;;;;;;;;;;;;;;;;5113659;28;19928;-85
2022/07/30 11:59:00;;;;;;;;;;;;;;;;;;5105232;28;20404;-83
2022/07/30 12:01:26;;;;;;;;;;;;;;;;;;5103038;28;19924;-83
2022/07/30 12:03:53;;;;;;;;;;;;;;;;;;5102273;28;19924;-83
2022/07/30 12:06:22;;;;;;;;;;;;;;;;;;5101829;28;19980;-83
2022/07/30 12:08:49;;;;;;;;;;;;;;;;;;5098941;28;20404;-84
2022/07/30 12:11:16;;;;;;;;;;;;;;;;;;5088598;28;19928;-82
2022/07/30 12:13:44;;;;;;;;;;;;;;;;;;5107538;28;19924;-81
2022/07/30 12:16:11;;;;;;;;;;;;;;;;;;5108522;28;19928;-84
2022/07/30 12:18:38;;;;;;;;;;;;;;;;;;5108302;28;19978;-83
2022/07/30 12:21:07;;;;;;;;;;;;;;;;;;5108406;28;19972;-81
2022/07/30 12:23:35;;;;;;;;;;;;;;;;;;5107270;28;19984;-82
2022/07/30 12:26:03;;;;;;;;;;;;;;;;;;5100349;28;19925;-82
2022/07/30 12:28:30;;;;;;;;;;;;;;;;;;5099873;28;20026;-82
2022/07/30 12:30:57;;;;;;;;;;;;;;;;;;5079301;28;20349;-83
2022/07/30 12:33:24;;;;;;;;;;;;;;;;;;5090012;28;19924;-84
2022/07/30 12:35:52;;;;;;;;;;;;;;;;;;5133791;22;20416;-83
2022/07/30 12:38:19;;;;;;;;;;;;;;;;;;5128587;28;19924;-84
2022/07/30 12:40:54;;;;;;;;;;;;;;;;;;5119596;28;20014;-82
2022/07/30 12:43:39;;;;;;;;;;;;;;;;;;5122048;28;19977;-82
2022/07/30 12:46:06;;;;;;;;;;;;;;;;;;5118309;28;19951;-83
2022/07/30 12:48:32;;;;;;;;;;;;;;;;;;5119327;28;19999;-81
2022/07/30 12:51:05;;;;;;;;;;;;;;;;;;5120280;28;19969;-80
2022/07/30 12:53:32;;;;;;;;;;;;;;;;;;5121706;28;19924;-83
2022/07/30 12:56:11;;;;;;;;;;;;;;;;;;5122256;28;20371;-81
2022/07/30 12:58:38;;;;;;;;;;;;;;;;;;5122696;28;19923;-82
2022/07/30 13:01:04;;;;;;;;;;;;;;;;;;5110434;28;19973;-83
2022/07/30 13:03:38;;;;;;;;;;;;;;;;;;5102583;28;19967;-82
2022/07/30 13:06:11;;;;;;;;;;;;;;;;;;5101116;28;20007;-82
2022/07/30 13:08:51;;;;;;;;;;;;;;;;;;5103604;28;20710;-83
2022/07/30 13:11:20;;;;;;;;;;;;;;;;;;5101961;28;19930;-80
2022/07/30 13:13:47;;;;;;;;;;;;;;;;;;5100394;28;19924;-80
2022/07/30 13:16:13;;;;;;;;;;;;;;;;;;5099624;28;19944;-80
2022/07/30 13:18:40;;;;;;;;;;;;;;;;;;5101560;28;19973;-79
2022/07/30 13:21:08;;;;;;;;;;;;;;;;;;5107549;28;19928;-79
2022/07/30 13:23:34;;;;;;;;;;;;;;;;;;5107862;28;19951;-80
2022/07/30 13:26:02;;;;;;;;;;;;;;;;;;5106035;28;19924;-80
2022/07/30 13:28:30;;;;;;;;;;;;;;;;;;5106263;28;19923;-80
2022/07/30 13:30:57;;;;;;;;;;;;;;;;;;5108143;28;19922;-82
2022/07/30 13:33:23;;;;;;;;;;;;;;;;;;5108425;28;19954;-82
2022/07/30 13:35:50;;;;;;;;;;;;;;;;;;5102312;28;19966;-80
2022/07/30 13:38:16;;;;;;;;;;;;;;;;;;5104748;28;19924;-79
2022/07/30 13:40:43;;;;;;;;;;;;;;;;;;5104246;28;19959;-81
2022/07/30 13:43:09;;;;;;;;;;;;;;;;;;5102696;28;19924;-80
2022/07/30 13:45:37;;;;;;;;;;;;;;;;;;5104746;28;19924;-81
2022/07/30 13:48:04;;;;;;;;;;;;;;;;;;5106276;28;19928;-82
2022/07/30 13:50:30;;;;;;;;;;;;;;;;;;5102888;28;19946;-81
2022/07/30 13:52:57;;;;;;;;;;;;;;;;;;5101453;28;19973;-80
2022/07/30 13:55:24;;;;;;;;;;;;;;;;;;5101583;28;20391;-82
2022/07/30 13:57:50;;;;;;;;;;;;;;;;;;5102637;28;19956;-82
2022/07/30 14:00:17;;;;;;;;;;;;;;;;;;5103115;28;19948;-83
2022/07/30 14:02:44;;;;;;;;;;;;;;;;;;5106047;28;19923;-81
2022/07/30 14:05:11;;;;;;;;;;;;;;;;;;5101618;28;19924;-83
2022/07/30 14:07:38;;;;;;;;;;;;;;;;;;5101018;28;19931;-82
2022/07/30 14:10:05;;;;;;;;;;;;;;;;;;5101071;28;19943;-83
2022/07/30 14:12:32;;;;;;;;;;;;;;;;;;5101652;28;19924;-80
2022/07/30 14:14:58;;;;;;;;;;;;;;;;;;5099106;28;19963;-82
2022/07/30 14:17:25;;;;;;;;;;;;;;;;;;5100469;28;19924;-81
2022/07/30 14:19:53;;;;;;;;;;;;;;;;;;5099411;28;19974;-81
2022/07/30 14:22:20;;;;;;;;;;;;;;;;;;5102682;28;19924;-82
2022/07/30 14:24:47;;;;;;;;;;;;;;;;;;5101570;28;19924;-80
2022/07/30 14:27:14;;;;;;;;;;;;;;;;;;5096808;28;19924;-81
2022/07/30 14:29:40;;;;;;;;;;;;;;;;;;5097458;28;19971;-82
2022/07/30 14:32:07;;;;;;;;;;;;;;;;;;5098883;28;19963;-82
2022/07/30 14:34:33;;;;;;;;;;;;;;;;;;5100202;28;19944;-82
2022/07/30 14:37:15;;;;;;;;;;;;;;;;;;5108591;28;19959;-82
2022/07/30 14:39:41;;;;;;;;;;;;;;;;;;5115349;28;19946;-80
2022/07/30 14:42:08;;;;;;;;;;;;;;;;;;5114446;28;19924;-83
2022/07/30 14:44:34;;;;;;;;;;;;;;;;;;5111527;28;19924;-81
2022/07/30 14:47:01;;;;;;;;;;;;;;;;;;5110878;28;19924;-82
2022/07/30 14:49:30;;;;;;;;;;;;;;;;;;5103991;28;19931;-84
2022/07/30 14:51:56;;;;;;;;;;;;;;;;;;5102698;28;20408;-81
2022/07/30 14:54:26;;;;;;;;;;;;;;;;;;5103397;28;19982;-83
2022/07/30 14:56:53;;;;;;;;;;;;;;;;;;5104283;28;19934;-83
2022/07/30 14:59:20;;;;;;;;;;;;;;;;;;5104417;28;19924;-82
2022/07/30 15:01:53;;;;;;;;;;;;;;;;;;5085329;28;19924;-83
2022/07/30 15:04:20;;;;;;;;;;;;;;;;;;5082407;28;19925;-84
2022/07/30 15:06:47;;;;;;;;;;;;;;;;;;5080763;28;19988;-82
2022/07/30 15:09:13;;;;;;;;;;;;;;;;;;5083664;28;19925;-84
2022/07/30 15:12:01;;;;;;;;;;;;;;;;;;5084381;28;19932;-82
2022/07/30 15:17:06;;;;;;;;;;;;;;;;;;5122278;22;20406;-69
2022/07/30 15:19:34;;;;;;;;;;;;;;;;;;5114689;28;19923;-71
2022/07/30 15:22:01;;;;;;;;;;;;;;;;;;5114788;28;19927;-73
2022/07/30 15:24:28;;;;;;;;;;;;;;;;;;5114691;28;20404;-69
2022/07/30 15:26:56;;;;;;;;;;;;;;;;;;5114626;28;19924;-75
2022/07/30 15:29:23;;;;;;;;;;;;;;;;;;5114255;28;20030;-70
2022/07/30 15:31:49;;;;;;;;;;;;;;;;;;5113865;28;19931;-65
2022/07/30 15:34:16;;;;;;;;;;;;;;;;;;5113630;28;19969;-69
2022/07/30 15:36:45;;;;;;;;;;;;;;;;;;5114322;28;19931;-69
2022/07/30 15:39:13;;;;;;;;;;;;;;;;;;5113278;28;19924;-70
2022/07/30 15:41:40;;;;;;;;;;;;;;;;;;5113874;28;19931;-66
2022/07/30 15:44:08;;;;;;;;;;;;;;;;;;5112943;28;19928;-68
2022/07/30 15:46:34;;;;;;;;;;;;;;;;;;5113743;28;19977;-67
2022/07/30 15:49:01;;;;;;;;;;;;;;;;;;5112817;28;20330;-67
2022/07/30 15:51:28;;;;;;;;;;;;;;;;;;5113502;28;20375;-68
2022/07/30 15:53:54;;;;;;;;;;;;;;;;;;5113831;28;19931;-68
2022/07/30 15:56:23;;;;;;;;;;;;;;;;;;5106292;28;19962;-68
2022/07/30 15:58:49;;;;;;;;;;;;;;;;;;5095057;28;19934;-68
2022/07/30 16:01:17;;;;;;;;;;;;;;;;;;5108064;28;20007;-67
2022/07/30 16:03:44;;;;;;;;;;;;;;;;;;5114208;28;19928;-68
2022/07/30 16:06:11;;;;;;;;;;;;;;;;;;5115257;28;19977;-68
2022/07/30 16:08:38;;;;;;;;;;;;;;;;;;5115393;28;19969;-67
2022/07/30 16:11:11;;;;;;;;;;;;;;;;;;5114793;28;20439;-69
2022/07/30 16:13:38;;;;;;;;;;;;;;;;;;5108355;28;20392;-67
2022/07/30 16:16:05;;;;;;;;;;;;;;;;;;5094640;28;19973;-66
2022/07/30 16:18:35;;;;;;;;;;;;;;;;;;5094709;28;20383;-67
2022/07/30 16:21:01;;;;;;;;;;;;;;;;;;5094619;28;19931;-68
2022/07/30 16:23:28;;;;;;;;;;;;;;;;;;5094686;28;20384;-68
2022/07/30 16:25:55;;;;;;;;;;;;;;;;;;5094414;28;19927;-68
2022/07/30 16:28:21;;;;;;;;;;;;;;;;;;5094399;28;19931;-67
2022/07/30 16:30:49;;;;;;;;;;;;;;;;;;5094193;28;19924;-68
2022/07/30 16:33:15;;;;;;;;;;;;;;;;;;5094403;28;19924;-68
2022/07/30 16:35:44;;;;;;;;;;;;;;;;;;5094154;28;19924;-68
2022/07/30 16:38:10;;;;;;;;;;;;;;;;;;5094543;28;19924;-68
2022/07/30 16:40:37;;;;;;;;;;;;;;;;;;5094070;28;20288;-68
2022/07/30 16:43:04;;;;;;;;;;;;;;;;;;5093953;28;19924;-67
2022/07/30 16:45:30;;;;;;;;;;;;;;;;;;5094094;28;19970;-67
2022/07/30 16:47:57;;;;;;;;;;;;;;;;;;5094265;28;19924;-67
2022/07/30 16:50:24;;;;;;;;;;;;;;;;;;5093849;28;20007;-67
2022/07/30 16:52:52;;;;;;;;;;;;;;;;;;5093807;28;19935;-67
2022/07/30 16:55:18;;;;;;;;;;;;;;;;;;5093995;28;19928;-67
2022/07/30 16:57:45;;;;;;;;;;;;;;;;;;5094056;28;19924;-67
2022/07/30 17:00:13;;;;;;;;;;;;;;;;;;5098127;28;19923;-67
2022/07/30 17:02:41;;;;;;;;;;;;;;;;;;5114048;28;20027;-67